sensor_id;sensor_type;location;lat;lon;timestamp;P1;durP1;ratioP1;P2;durP2;ratioP2
75993;SDS011;64680;53.800;9.988;2023-06-10T00:01:59;8.13;;;3.00;;
75993;SDS011;64680;53.800;9.988;2023-06-10T00:04:25;9.77;;;3.72;;
75993;SDS011;64680;53.800;9.988;2023-06-10T00:06:51;8.68;;;3.13;;
75993;SDS011;64680;53.800;9.988;2023-06-10T00:09:16;8.27;;;3.40;;
75993;SDS011;64680;53.800;9.988;2023-06-10T00:11:43;5.65;;;3.33;;
75993;SDS011;64680;53.800;9.988;2023-06-10T00:14:09;7.50;;;3.28;;
75993;SDS011;64680;53.800;9.988;2023-06-10T00:16:35;6.55;;;3.53;;
75993;SDS011;64680;53.800;9.988;2023-06-10T00:19:02;9.50;;;3.63;;
75993;SDS011;64680;53.800;9.988;2023-06-10T00:21:29;6.57;;;2.80;;
75993;SDS011;64680;53.800;9.988;2023-06-10T00:23:55;7.32;;;3.60;;
75993;SDS011;64680;53.800;9.988;2023-06-10T00:26:24;6.80;;;3.03;;
75993;SDS011;64680;53.800;9.988;2023-06-10T00:28:51;6.95;;;2.97;;
75993;SDS011;64680;53.800;9.988;2023-06-10T00:31:17;7.65;;;3.40;;
75993;SDS011;64680;53.800;9.988;2023-06-10T00:33:42;7.15;;;3.35;;
75993;SDS011;64680;53.800;9.988;2023-06-10T00:36:08;7.57;;;2.90;;
75993;SDS011;64680;53.800;9.988;2023-06-10T00:38:34;5.93;;;2.80;;
75993;SDS011;64680;53.800;9.988;2023-06-10T00:40:59;8.63;;;3.22;;
75993;SDS011;64680;53.800;9.988;2023-06-10T00:43:25;6.30;;;2.72;;
75993;SDS011;64680;53.800;9.988;2023-06-10T00:45:51;4.50;;;2.80;;
75993;SDS011;64680;53.800;9.988;2023-06-10T00:48:17;8.35;;;2.63;;
75993;SDS011;64680;53.800;9.988;2023-06-10T00:50:43;3.88;;;2.65;;
75993;SDS011;64680;53.800;9.988;2023-06-10T00:53:11;6.72;;;2.90;;
75993;SDS011;64680;53.800;9.988;2023-06-10T00:55:37;4.95;;;2.65;;
75993;SDS011;64680;53.800;9.988;2023-06-10T00:58:03;7.60;;;3.00;;
75993;SDS011;64680;53.800;9.988;2023-06-10T01:00:29;9.40;;;2.60;;
75993;SDS011;64680;53.800;9.988;2023-06-10T01:02:55;3.90;;;2.30;;
75993;SDS011;64680;53.800;9.988;2023-06-10T01:05:21;5.70;;;2.70;;
75993;SDS011;64680;53.800;9.988;2023-06-10T01:10:31;7.78;;;2.78;;
75993;SDS011;64680;53.800;9.988;2023-06-10T01:13:05;7.72;;;3.00;;
75993;SDS011;64680;53.800;9.988;2023-06-10T01:15:33;6.78;;;3.33;;
75993;SDS011;64680;53.800;9.988;2023-06-10T01:18:00;7.05;;;3.15;;
75993;SDS011;64680;53.800;9.988;2023-06-10T01:20:27;6.22;;;3.08;;
75993;SDS011;64680;53.800;9.988;2023-06-10T01:22:54;6.75;;;3.55;;
75993;SDS011;64680;53.800;9.988;2023-06-10T01:25:20;8.95;;;3.97;;
75993;SDS011;64680;53.800;9.988;2023-06-10T01:27:53;9.13;;;3.67;;
75993;SDS011;64680;53.800;9.988;2023-06-10T01:33:22;7.28;;;3.42;;
75993;SDS011;64680;53.800;9.988;2023-06-10T01:35:53;7.55;;;3.40;;
75993;SDS011;64680;53.800;9.988;2023-06-10T01:38:22;9.07;;;3.75;;
75993;SDS011;64680;53.800;9.988;2023-06-10T01:40:51;8.63;;;3.50;;
75993;SDS011;64680;53.800;9.988;2023-06-10T01:43:18;8.55;;;3.63;;
75993;SDS011;64680;53.800;9.988;2023-06-10T01:45:45;6.05;;;3.05;;
75993;SDS011;64680;53.800;9.988;2023-06-10T01:48:11;11.23;;;3.70;;
75993;SDS011;64680;53.800;9.988;2023-06-10T01:50:37;6.95;;;3.40;;
75993;SDS011;64680;53.800;9.988;2023-06-10T01:53:03;8.75;;;3.58;;
75993;SDS011;64680;53.800;9.988;2023-06-10T01:55:30;8.18;;;3.38;;
75993;SDS011;64680;53.800;9.988;2023-06-10T01:57:55;7.75;;;3.63;;
75993;SDS011;64680;53.800;9.988;2023-06-10T02:00:21;8.80;;;3.53;;
75993;SDS011;64680;53.800;9.988;2023-06-10T02:02:47;6.13;;;3.17;;
75993;SDS011;64680;53.800;9.988;2023-06-10T02:05:12;5.70;;;3.30;;
75993;SDS011;64680;53.800;9.988;2023-06-10T02:07:38;6.82;;;3.30;;
75993;SDS011;64680;53.800;9.988;2023-06-10T02:10:04;7.60;;;3.63;;
75993;SDS011;64680;53.800;9.988;2023-06-10T02:12:30;9.60;;;3.63;;
75993;SDS011;64680;53.800;9.988;2023-06-10T02:14:56;8.00;;;3.08;;
75993;SDS011;64680;53.800;9.988;2023-06-10T02:17:21;8.30;;;2.80;;
75993;SDS011;64680;53.800;9.988;2023-06-10T02:19:48;5.85;;;2.53;;
75993;SDS011;64680;53.800;9.988;2023-06-10T02:22:21;8.63;;;3.03;;
75993;SDS011;64680;53.800;9.988;2023-06-10T02:24:47;8.88;;;3.33;;
75993;SDS011;64680;53.800;9.988;2023-06-10T02:27:14;8.32;;;3.33;;
75993;SDS011;64680;53.800;9.988;2023-06-10T02:29:40;8.00;;;2.75;;
75993;SDS011;64680;53.800;9.988;2023-06-10T02:32:06;4.15;;;2.45;;
75993;SDS011;64680;53.800;9.988;2023-06-10T02:34:32;4.03;;;2.20;;
75993;SDS011;64680;53.800;9.988;2023-06-10T02:36:58;10.63;;;2.95;;
75993;SDS011;64680;53.800;9.988;2023-06-10T02:39:27;7.82;;;2.80;;
75993;SDS011;64680;53.800;9.988;2023-06-10T02:41:53;8.68;;;2.58;;
75993;SDS011;64680;53.800;9.988;2023-06-10T02:44:19;7.75;;;3.03;;
75993;SDS011;64680;53.800;9.988;2023-06-10T02:46:45;5.70;;;2.58;;
75993;SDS011;64680;53.800;9.988;2023-06-10T02:49:11;7.40;;;2.80;;
75993;SDS011;64680;53.800;9.988;2023-06-10T02:51:37;7.95;;;2.90;;
75993;SDS011;64680;53.800;9.988;2023-06-10T02:54:03;7.53;;;2.17;;
75993;SDS011;64680;53.800;9.988;2023-06-10T02:56:29;6.00;;;2.40;;
75993;SDS011;64680;53.800;9.988;2023-06-10T02:58:55;5.53;;;2.40;;
75993;SDS011;64680;53.800;9.988;2023-06-10T03:01:21;6.43;;;2.08;;
75993;SDS011;64680;53.800;9.988;2023-06-10T03:03:46;6.93;;;2.40;;
75993;SDS011;64680;53.800;9.988;2023-06-10T03:06:12;9.48;;;2.58;;
75993;SDS011;64680;53.800;9.988;2023-06-10T03:08:39;4.68;;;2.13;;
75993;SDS011;64680;53.800;9.988;2023-06-10T03:11:05;4.30;;;1.90;;
75993;SDS011;64680;53.800;9.988;2023-06-10T03:13:31;6.45;;;2.25;;
75993;SDS011;64680;53.800;9.988;2023-06-10T03:15:57;6.10;;;2.50;;
75993;SDS011;64680;53.800;9.988;2023-06-10T03:18:25;4.57;;;2.05;;
75993;SDS011;64680;53.800;9.988;2023-06-10T03:20:52;5.57;;;2.05;;
75993;SDS011;64680;53.800;9.988;2023-06-10T03:23:17;6.15;;;2.15;;
75993;SDS011;64680;53.800;9.988;2023-06-10T03:25:44;5.38;;;2.22;;
75993;SDS011;64680;53.800;9.988;2023-06-10T03:28:10;4.10;;;1.88;;
75993;SDS011;64680;53.800;9.988;2023-06-10T03:30:35;7.10;;;2.17;;
75993;SDS011;64680;53.800;9.988;2023-06-10T03:33:01;4.40;;;1.85;;
75993;SDS011;64680;53.800;9.988;2023-06-10T03:35:26;4.88;;;2.20;;
75993;SDS011;64680;53.800;9.988;2023-06-10T03:37:52;5.47;;;2.20;;
75993;SDS011;64680;53.800;9.988;2023-06-10T03:40:17;4.30;;;1.60;;
75993;SDS011;64680;53.800;9.988;2023-06-10T03:42:43;4.10;;;2.10;;
75993;SDS011;64680;53.800;9.988;2023-06-10T03:45:09;3.17;;;1.73;;
75993;SDS011;64680;53.800;9.988;2023-06-10T03:47:35;4.10;;;1.55;;
75993;SDS011;64680;53.800;9.988;2023-06-10T03:50:04;6.03;;;2.05;;
75993;SDS011;64680;53.800;9.988;2023-06-10T03:52:30;4.97;;;1.38;;
75993;SDS011;64680;53.800;9.988;2023-06-10T03:54:56;4.53;;;1.80;;
75993;SDS011;64680;53.800;9.988;2023-06-10T03:57:22;5.00;;;1.45;;
75993;SDS011;64680;53.800;9.988;2023-06-10T03:59:47;4.50;;;1.73;;
75993;SDS011;64680;53.800;9.988;2023-06-10T04:02:13;3.90;;;1.65;;
75993;SDS011;64680;53.800;9.988;2023-06-10T04:04:38;4.53;;;2.05;;
75993;SDS011;64680;53.800;9.988;2023-06-10T04:07:04;3.85;;;1.60;;
75993;SDS011;64680;53.800;9.988;2023-06-10T04:09:30;4.47;;;1.40;;
75993;SDS011;64680;53.800;9.988;2023-06-10T04:11:56;4.53;;;1.67;;
75993;SDS011;64680;53.800;9.988;2023-06-10T04:14:22;5.18;;;1.67;;
75993;SDS011;64680;53.800;9.988;2023-06-10T04:16:47;4.38;;;1.48;;
75993;SDS011;64680;53.800;9.988;2023-06-10T04:19:13;6.32;;;1.98;;
75993;SDS011;64680;53.800;9.988;2023-06-10T04:21:39;6.35;;;2.10;;
75993;SDS011;64680;53.800;9.988;2023-06-10T04:24:04;9.35;;;1.85;;
75993;SDS011;64680;53.800;9.988;2023-06-10T04:26:30;6.53;;;1.67;;
75993;SDS011;64680;53.800;9.988;2023-06-10T04:28:55;5.82;;;1.40;;
75993;SDS011;64680;53.800;9.988;2023-06-10T04:31:21;6.07;;;1.73;;
75993;SDS011;64680;53.800;9.988;2023-06-10T04:33:46;6.55;;;1.80;;
75993;SDS011;64680;53.800;9.988;2023-06-10T04:36:12;3.53;;;1.13;;
75993;SDS011;64680;53.800;9.988;2023-06-10T04:38:39;4.78;;;1.30;;
75993;SDS011;64680;53.800;9.988;2023-06-10T04:41:05;5.38;;;1.33;;
75993;SDS011;64680;53.800;9.988;2023-06-10T04:43:31;7.25;;;1.35;;
75993;SDS011;64680;53.800;9.988;2023-06-10T04:45:56;5.43;;;1.60;;
75993;SDS011;64680;53.800;9.988;2023-06-10T04:48:22;5.55;;;0.93;;
75993;SDS011;64680;53.800;9.988;2023-06-10T04:50:49;4.65;;;1.40;;
75993;SDS011;64680;53.800;9.988;2023-06-10T04:53:15;6.90;;;1.45;;
75993;SDS011;64680;53.800;9.988;2023-06-10T04:55:41;3.10;;;1.40;;
75993;SDS011;64680;53.800;9.988;2023-06-10T04:58:07;5.45;;;1.35;;
75993;SDS011;64680;53.800;9.988;2023-06-10T05:00:33;5.97;;;1.42;;
75993;SDS011;64680;53.800;9.988;2023-06-10T05:02:58;6.60;;;1.33;;
75993;SDS011;64680;53.800;9.988;2023-06-10T05:05:24;5.57;;;1.08;;
75993;SDS011;64680;53.800;9.988;2023-06-10T05:07:49;4.20;;;1.13;;
75993;SDS011;64680;53.800;9.988;2023-06-10T05:10:15;4.20;;;1.10;;
75993;SDS011;64680;53.800;9.988;2023-06-10T05:12:41;5.32;;;1.20;;
75993;SDS011;64680;53.800;9.988;2023-06-10T05:15:10;3.65;;;1.08;;
75993;SDS011;64680;53.800;9.988;2023-06-10T05:17:35;3.60;;;0.90;;
75993;SDS011;64680;53.800;9.988;2023-06-10T05:20:01;4.40;;;1.08;;
75993;SDS011;64680;53.800;9.988;2023-06-10T05:22:27;4.47;;;1.02;;
75993;SDS011;64680;53.800;9.988;2023-06-10T05:24:53;5.05;;;1.30;;
75993;SDS011;64680;53.800;9.988;2023-06-10T05:27:19;3.95;;;0.90;;
75993;SDS011;64680;53.800;9.988;2023-06-10T05:29:45;4.18;;;1.10;;
75993;SDS011;64680;53.800;9.988;2023-06-10T05:32:10;3.22;;;0.90;;
75993;SDS011;64680;53.800;9.988;2023-06-10T05:34:36;3.78;;;0.98;;
75993;SDS011;64680;53.800;9.988;2023-06-10T05:37:02;3.85;;;1.08;;
75993;SDS011;64680;53.800;9.988;2023-06-10T05:39:28;3.47;;;1.05;;
75993;SDS011;64680;53.800;9.988;2023-06-10T05:41:54;5.25;;;1.20;;
75993;SDS011;64680;53.800;9.988;2023-06-10T05:44:20;6.13;;;1.35;;
75993;SDS011;64680;53.800;9.988;2023-06-10T05:46:45;6.47;;;1.10;;
75993;SDS011;64680;53.800;9.988;2023-06-10T05:49:11;7.30;;;1.52;;
75993;SDS011;64680;53.800;9.988;2023-06-10T05:51:36;6.15;;;1.00;;
75993;SDS011;64680;53.800;9.988;2023-06-10T05:54:03;4.30;;;0.98;;
75993;SDS011;64680;53.800;9.988;2023-06-10T05:56:29;3.63;;;1.10;;
75993;SDS011;64680;53.800;9.988;2023-06-10T05:58:54;5.22;;;1.27;;
75993;SDS011;64680;53.800;9.988;2023-06-10T06:01:20;3.83;;;0.95;;
75993;SDS011;64680;53.800;9.988;2023-06-10T06:03:46;7.90;;;1.40;;
75993;SDS011;64680;53.800;9.988;2023-06-10T06:06:12;6.80;;;1.25;;
75993;SDS011;64680;53.800;9.988;2023-06-10T06:08:37;4.32;;;1.05;;
75993;SDS011;64680;53.800;9.988;2023-06-10T06:11:03;5.72;;;1.58;;
75993;SDS011;64680;53.800;9.988;2023-06-10T06:13:28;4.25;;;1.27;;
75993;SDS011;64680;53.800;9.988;2023-06-10T06:15:54;3.78;;;1.10;;
75993;SDS011;64680;53.800;9.988;2023-06-10T06:18:20;5.25;;;1.25;;
75993;SDS011;64680;53.800;9.988;2023-06-10T06:20:45;3.42;;;1.00;;
75993;SDS011;64680;53.800;9.988;2023-06-10T06:23:11;4.38;;;1.10;;
75993;SDS011;64680;53.800;9.988;2023-06-10T06:25:37;3.20;;;1.13;;
75993;SDS011;64680;53.800;9.988;2023-06-10T06:28:07;5.85;;;1.10;;
75993;SDS011;64680;53.800;9.988;2023-06-10T06:30:34;5.95;;;1.70;;
75993;SDS011;64680;53.800;9.988;2023-06-10T06:33:00;4.57;;;1.50;;
75993;SDS011;64680;53.800;9.988;2023-06-10T06:35:26;5.28;;;1.15;;
75993;SDS011;64680;53.800;9.988;2023-06-10T06:37:51;5.15;;;1.27;;
75993;SDS011;64680;53.800;9.988;2023-06-10T06:40:17;4.28;;;1.60;;
75993;SDS011;64680;53.800;9.988;2023-06-10T06:42:43;8.05;;;1.58;;
75993;SDS011;64680;53.800;9.988;2023-06-10T06:45:09;5.43;;;1.40;;
75993;SDS011;64680;53.800;9.988;2023-06-10T06:47:35;6.28;;;1.45;;
75993;SDS011;64680;53.800;9.988;2023-06-10T06:50:00;4.72;;;1.40;;
75993;SDS011;64680;53.800;9.988;2023-06-10T06:52:27;5.70;;;1.27;;
75993;SDS011;64680;53.800;9.988;2023-06-10T06:54:53;6.15;;;1.42;;
75993;SDS011;64680;53.800;9.988;2023-06-10T06:57:19;5.22;;;1.52;;
75993;SDS011;64680;53.800;9.988;2023-06-10T06:59:44;4.20;;;1.27;;
75993;SDS011;64680;53.800;9.988;2023-06-10T07:02:10;5.35;;;1.38;;
75993;SDS011;64680;53.800;9.988;2023-06-10T07:04:36;5.13;;;1.33;;
75993;SDS011;64680;53.800;9.988;2023-06-10T07:07:01;4.60;;;1.63;;
75993;SDS011;64680;53.800;9.988;2023-06-10T07:09:27;4.30;;;1.30;;
75993;SDS011;64680;53.800;9.988;2023-06-10T07:11:53;5.55;;;1.10;;
75993;SDS011;64680;53.800;9.988;2023-06-10T07:14:19;3.03;;;1.13;;
75993;SDS011;64680;53.800;9.988;2023-06-10T07:16:44;7.80;;;1.67;;
75993;SDS011;64680;53.800;9.988;2023-06-10T07:19:11;5.38;;;1.50;;
75993;SDS011;64680;53.800;9.988;2023-06-10T07:21:36;3.50;;;1.15;;
75993;SDS011;64680;53.800;9.988;2023-06-10T07:24:03;6.47;;;1.60;;
75993;SDS011;64680;53.800;9.988;2023-06-10T07:26:29;3.72;;;1.60;;
75993;SDS011;64680;53.800;9.988;2023-06-10T07:28:54;4.50;;;1.63;;
75993;SDS011;64680;53.800;9.988;2023-06-10T07:31:20;5.18;;;1.73;;
75993;SDS011;64680;53.800;9.988;2023-06-10T07:33:46;4.65;;;1.33;;
75993;SDS011;64680;53.800;9.988;2023-06-10T07:36:12;7.25;;;1.90;;
75993;SDS011;64680;53.800;9.988;2023-06-10T07:38:38;6.18;;;1.95;;
75993;SDS011;64680;53.800;9.988;2023-06-10T07:41:03;6.97;;;1.98;;
75993;SDS011;64680;53.800;9.988;2023-06-10T07:43:29;4.82;;;1.83;;
75993;SDS011;64680;53.800;9.988;2023-06-10T07:45:55;7.18;;;1.98;;
75993;SDS011;64680;53.800;9.988;2023-06-10T07:48:21;4.45;;;1.60;;
75993;SDS011;64680;53.800;9.988;2023-06-10T07:50:46;6.47;;;1.90;;
75993;SDS011;64680;53.800;9.988;2023-06-10T07:53:12;4.40;;;1.77;;
75993;SDS011;64680;53.800;9.988;2023-06-10T07:55:37;6.45;;;1.85;;
75993;SDS011;64680;53.800;9.988;2023-06-10T07:58:03;8.95;;;1.70;;
75993;SDS011;64680;53.800;9.988;2023-06-10T08:00:29;4.75;;;1.90;;
75993;SDS011;64680;53.800;9.988;2023-06-10T08:02:54;4.40;;;1.67;;
75993;SDS011;64680;53.800;9.988;2023-06-10T08:05:20;3.92;;;1.70;;
75993;SDS011;64680;53.800;9.988;2023-06-10T08:07:46;4.22;;;1.48;;
75993;SDS011;64680;53.800;9.988;2023-06-10T08:10:12;5.25;;;1.70;;
75993;SDS011;64680;53.800;9.988;2023-06-10T08:12:37;5.05;;;1.50;;
75993;SDS011;64680;53.800;9.988;2023-06-10T08:15:03;4.70;;;1.88;;
75993;SDS011;64680;53.800;9.988;2023-06-10T08:17:29;5.70;;;2.10;;
75993;SDS011;64680;53.800;9.988;2023-06-10T08:19:55;4.15;;;1.67;;
75993;SDS011;64680;53.800;9.988;2023-06-10T08:22:21;5.00;;;1.73;;
75993;SDS011;64680;53.800;9.988;2023-06-10T08:24:46;4.88;;;1.83;;
75993;SDS011;64680;53.800;9.988;2023-06-10T08:27:12;5.07;;;1.90;;
75993;SDS011;64680;53.800;9.988;2023-06-10T08:29:38;4.50;;;1.90;;
75993;SDS011;64680;53.800;9.988;2023-06-10T08:32:04;6.50;;;2.20;;
75993;SDS011;64680;53.800;9.988;2023-06-10T08:34:30;5.82;;;2.15;;
75993;SDS011;64680;53.800;9.988;2023-06-10T08:36:58;6.20;;;1.85;;
75993;SDS011;64680;53.800;9.988;2023-06-10T08:39:23;7.10;;;2.03;;
75993;SDS011;64680;53.800;9.988;2023-06-10T08:44:53;4.15;;;1.73;;
75993;SDS011;64680;53.800;9.988;2023-06-10T08:47:21;5.45;;;2.10;;
75993;SDS011;64680;53.800;9.988;2023-06-10T08:49:49;8.50;;;2.47;;
75993;SDS011;64680;53.800;9.988;2023-06-10T08:52:16;5.78;;;2.22;;
75993;SDS011;64680;53.800;9.988;2023-06-10T08:54:46;6.35;;;1.83;;
75993;SDS011;64680;53.800;9.988;2023-06-10T08:57:17;4.38;;;1.60;;
75993;SDS011;64680;53.800;9.988;2023-06-10T08:59:46;6.10;;;2.10;;
75993;SDS011;64680;53.800;9.988;2023-06-10T09:02:11;6.53;;;1.67;;
75993;SDS011;64680;53.800;9.988;2023-06-10T09:04:40;5.75;;;1.92;;
75993;SDS011;64680;53.800;9.988;2023-06-10T09:07:07;7.20;;;2.25;;
75993;SDS011;64680;53.800;9.988;2023-06-10T09:09:33;5.93;;;1.85;;
75993;SDS011;64680;53.800;9.988;2023-06-10T09:12:00;5.22;;;1.77;;
75993;SDS011;64680;53.800;9.988;2023-06-10T09:14:26;7.47;;;2.08;;
75993;SDS011;64680;53.800;9.988;2023-06-10T09:16:52;6.90;;;1.95;;
75993;SDS011;64680;53.800;9.988;2023-06-10T09:19:21;5.25;;;1.70;;
75993;SDS011;64680;53.800;9.988;2023-06-10T09:21:48;5.30;;;2.40;;
75993;SDS011;64680;53.800;9.988;2023-06-10T09:24:14;6.68;;;2.40;;
75993;SDS011;64680;53.800;9.988;2023-06-10T09:26:40;6.28;;;2.13;;
75993;SDS011;64680;53.800;9.988;2023-06-10T09:29:07;6.18;;;2.33;;
75993;SDS011;64680;53.800;9.988;2023-06-10T09:31:36;5.45;;;1.88;;
75993;SDS011;64680;53.800;9.988;2023-06-10T09:34:11;6.25;;;1.88;;
75993;SDS011;64680;53.800;9.988;2023-06-10T09:36:37;8.80;;;2.20;;
75993;SDS011;64680;53.800;9.988;2023-06-10T09:39:04;4.88;;;2.20;;
75993;SDS011;64680;53.800;9.988;2023-06-10T09:41:33;6.07;;;2.20;;
75993;SDS011;64680;53.800;9.988;2023-06-10T09:44:00;4.70;;;1.90;;
75993;SDS011;64680;53.800;9.988;2023-06-10T09:46:30;5.95;;;2.58;;
75993;SDS011;64680;53.800;9.988;2023-06-10T09:48:57;6.60;;;2.30;;
75993;SDS011;64680;53.800;9.988;2023-06-10T09:51:23;6.68;;;2.40;;
75993;SDS011;64680;53.800;9.988;2023-06-10T09:53:50;5.65;;;2.00;;
75993;SDS011;64680;53.800;9.988;2023-06-10T09:56:16;7.25;;;2.15;;
75993;SDS011;64680;53.800;9.988;2023-06-10T09:58:42;6.22;;;2.22;;
75993;SDS011;64680;53.800;9.988;2023-06-10T10:01:11;8.20;;;2.67;;
75993;SDS011;64680;53.800;9.988;2023-06-10T10:03:48;7.50;;;2.10;;
75993;SDS011;64680;53.800;9.988;2023-06-10T10:06:15;5.95;;;2.33;;
75993;SDS011;64680;53.800;9.988;2023-06-10T10:08:43;5.10;;;2.60;;
75993;SDS011;64680;53.800;9.988;2023-06-10T10:11:09;9.23;;;2.83;;
75993;SDS011;64680;53.800;9.988;2023-06-10T10:13:35;6.72;;;2.50;;
75993;SDS011;64680;53.800;9.988;2023-06-10T10:16:15;6.03;;;2.15;;
75993;SDS011;64680;53.800;9.988;2023-06-10T10:18:56;4.57;;;2.25;;
75993;SDS011;64680;53.800;9.988;2023-06-10T10:21:27;3.88;;;2.05;;
75993;SDS011;64680;53.800;9.988;2023-06-10T10:24:03;6.60;;;2.50;;
75993;SDS011;64680;53.800;9.988;2023-06-10T10:26:34;6.70;;;2.60;;
75993;SDS011;64680;53.800;9.988;2023-06-10T10:29:14;5.53;;;2.17;;
75993;SDS011;64680;53.800;9.988;2023-06-10T10:31:52;7.72;;;2.42;;
75993;SDS011;64680;53.800;9.988;2023-06-10T10:34:23;4.88;;;2.13;;
75993;SDS011;64680;53.800;9.988;2023-06-10T10:36:55;6.70;;;2.15;;
75993;SDS011;64680;53.800;9.988;2023-06-10T10:39:21;6.05;;;2.22;;
75993;SDS011;64680;53.800;9.988;2023-06-10T10:41:47;8.02;;;2.55;;
75993;SDS011;64680;53.800;9.988;2023-06-10T10:44:14;6.50;;;2.65;;
75993;SDS011;64680;53.800;9.988;2023-06-10T10:46:44;7.60;;;2.60;;
75993;SDS011;64680;53.800;9.988;2023-06-10T10:49:15;6.03;;;2.58;;
75993;SDS011;64680;53.800;9.988;2023-06-10T10:52:14;5.50;;;2.63;;
75993;SDS011;64680;53.800;9.988;2023-06-10T10:54:36;7.80;;;2.50;;
75993;SDS011;64680;53.800;9.988;2023-06-10T10:59:50;4.50;;;2.33;;
75993;SDS011;64680;53.800;9.988;2023-06-10T11:02:18;6.53;;;2.47;;
75993;SDS011;64680;53.800;9.988;2023-06-10T11:04:56;5.03;;;2.45;;
75993;SDS011;64680;53.800;9.988;2023-06-10T11:07:24;7.20;;;2.50;;
75993;SDS011;64680;53.800;9.988;2023-06-10T11:12:53;7.40;;;2.75;;
75993;SDS011;64680;53.800;9.988;2023-06-10T11:15:20;8.55;;;3.38;;
75993;SDS011;64680;53.800;9.988;2023-06-10T11:31:41;5.13;;;2.30;;
75993;SDS011;64680;53.800;9.988;2023-06-10T11:34:08;6.57;;;2.95;;
75993;SDS011;64680;53.800;9.988;2023-06-10T11:36:38;5.78;;;2.97;;
75993;SDS011;64680;53.800;9.988;2023-06-10T11:39:07;5.15;;;2.63;;
75993;SDS011;64680;53.800;9.988;2023-06-10T11:41:33;6.32;;;2.80;;
75993;SDS011;64680;53.800;9.988;2023-06-10T11:44:01;6.95;;;2.40;;
75993;SDS011;64680;53.800;9.988;2023-06-10T11:46:34;4.60;;;2.38;;
75993;SDS011;64680;53.800;9.988;2023-06-10T11:49:00;4.55;;;2.40;;
75993;SDS011;64680;53.800;9.988;2023-06-10T11:51:28;8.10;;;2.40;;
75993;SDS011;64680;53.800;9.988;2023-06-10T11:53:57;5.85;;;2.65;;
75993;SDS011;64680;53.800;9.988;2023-06-10T11:56:22;6.88;;;2.50;;
75993;SDS011;64680;53.800;9.988;2023-06-10T11:58:53;6.72;;;2.72;;
75993;SDS011;64680;53.800;9.988;2023-06-10T12:01:21;5.05;;;2.65;;
75993;SDS011;64680;53.800;9.988;2023-06-10T12:03:47;9.73;;;3.10;;
75993;SDS011;64680;53.800;9.988;2023-06-10T12:06:13;7.25;;;3.03;;
75993;SDS011;64680;53.800;9.988;2023-06-10T12:08:42;5.35;;;2.28;;
75993;SDS011;64680;53.800;9.988;2023-06-10T12:11:08;7.05;;;3.08;;
75993;SDS011;64680;53.800;9.988;2023-06-10T12:13:35;7.00;;;2.40;;
75993;SDS011;64680;53.800;9.988;2023-06-10T12:16:07;10.00;;;2.63;;
75993;SDS011;64680;53.800;9.988;2023-06-10T12:18:33;6.13;;;2.40;;
75993;SDS011;64680;53.800;9.988;2023-06-10T12:20:59;7.68;;;2.30;;
75993;SDS011;64680;53.800;9.988;2023-06-10T12:23:25;7.43;;;2.50;;
75993;SDS011;64680;53.800;9.988;2023-06-10T12:25:51;6.93;;;2.22;;
75993;SDS011;64680;53.800;9.988;2023-06-10T12:28:24;4.75;;;2.08;;
75993;SDS011;64680;53.800;9.988;2023-06-10T12:30:50;7.75;;;2.60;;
75993;SDS011;64680;53.800;9.988;2023-06-10T12:33:20;4.68;;;2.40;;
75993;SDS011;64680;53.800;9.988;2023-06-10T12:35:52;5.50;;;2.55;;
75993;SDS011;64680;53.800;9.988;2023-06-10T12:38:22;4.45;;;2.50;;
75993;SDS011;64680;53.800;9.988;2023-06-10T12:40:49;4.95;;;2.50;;
75993;SDS011;64680;53.800;9.988;2023-06-10T12:43:24;6.60;;;2.45;;
75993;SDS011;64680;53.800;9.988;2023-06-10T12:45:51;5.53;;;2.35;;
75993;SDS011;64680;53.800;9.988;2023-06-10T12:48:18;6.57;;;2.45;;
75993;SDS011;64680;53.800;9.988;2023-06-10T12:50:46;6.88;;;2.78;;
75993;SDS011;64680;53.800;9.988;2023-06-10T12:53:17;7.30;;;2.97;;
75993;SDS011;64680;53.800;9.988;2023-06-10T12:55:43;5.22;;;2.50;;
75993;SDS011;64680;53.800;9.988;2023-06-10T12:58:10;5.25;;;2.35;;
75993;SDS011;64680;53.800;9.988;2023-06-10T13:00:36;4.50;;;2.03;;
75993;SDS011;64680;53.800;9.988;2023-06-10T13:03:02;4.32;;;1.90;;
75993;SDS011;64680;53.800;9.988;2023-06-10T13:05:30;4.47;;;2.10;;
75993;SDS011;64680;53.800;9.988;2023-06-10T13:07:56;9.57;;;2.00;;
75993;SDS011;64680;53.800;9.988;2023-06-10T13:10:23;5.65;;;2.13;;
75993;SDS011;64680;53.800;9.988;2023-06-10T13:12:50;5.97;;;1.92;;
75993;SDS011;64680;53.800;9.988;2023-06-10T13:15:16;6.25;;;2.45;;
75993;SDS011;64680;53.800;9.988;2023-06-10T13:17:45;7.63;;;2.30;;
75993;SDS011;64680;53.800;9.988;2023-06-10T13:20:14;4.78;;;2.20;;
75993;SDS011;64680;53.800;9.988;2023-06-10T13:22:39;4.78;;;1.92;;
75993;SDS011;64680;53.800;9.988;2023-06-10T13:25:05;5.88;;;2.22;;
75993;SDS011;64680;53.800;9.988;2023-06-10T13:27:34;5.53;;;2.15;;
75993;SDS011;64680;53.800;9.988;2023-06-10T13:30:03;6.05;;;2.35;;
75993;SDS011;64680;53.800;9.988;2023-06-10T13:32:29;5.47;;;1.88;;
75993;SDS011;64680;53.800;9.988;2023-06-10T13:34:54;7.68;;;1.88;;
75993;SDS011;64680;53.800;9.988;2023-06-10T13:37:21;8.18;;;1.83;;
75993;SDS011;64680;53.800;9.988;2023-06-10T13:39:46;5.80;;;2.17;;
75993;SDS011;64680;53.800;9.988;2023-06-10T13:42:13;33.30;;;4.35;;
75993;SDS011;64680;53.800;9.988;2023-06-10T13:44:39;5.55;;;2.03;;
75993;SDS011;64680;53.800;9.988;2023-06-10T13:47:05;6.57;;;2.42;;
75993;SDS011;64680;53.800;9.988;2023-06-10T13:49:31;6.32;;;2.00;;
75993;SDS011;64680;53.800;9.988;2023-06-10T13:51:57;6.95;;;2.03;;
75993;SDS011;64680;53.800;9.988;2023-06-10T13:54:23;8.93;;;2.42;;
75993;SDS011;64680;53.800;9.988;2023-06-10T13:56:48;3.65;;;1.95;;
75993;SDS011;64680;53.800;9.988;2023-06-10T13:59:14;7.15;;;2.58;;
75993;SDS011;64680;53.800;9.988;2023-06-10T14:01:40;4.80;;;2.05;;
75993;SDS011;64680;53.800;9.988;2023-06-10T14:04:06;8.05;;;2.47;;
75993;SDS011;64680;53.800;9.988;2023-06-10T14:06:32;6.45;;;2.63;;
75993;SDS011;64680;53.800;9.988;2023-06-10T14:08:59;6.97;;;2.47;;
75993;SDS011;64680;53.800;9.988;2023-06-10T14:11:25;4.65;;;2.45;;
75993;SDS011;64680;53.800;9.988;2023-06-10T14:13:53;7.25;;;2.50;;
75993;SDS011;64680;53.800;9.988;2023-06-10T14:16:21;5.47;;;2.55;;
75993;SDS011;64680;53.800;9.988;2023-06-10T14:18:47;7.20;;;2.10;;
75993;SDS011;64680;53.800;9.988;2023-06-10T14:21:12;3.85;;;2.22;;
75993;SDS011;64680;53.800;9.988;2023-06-10T14:23:38;10.43;;;2.17;;
75993;SDS011;64680;53.800;9.988;2023-06-10T14:26:04;6.00;;;2.17;;
75993;SDS011;64680;53.800;9.988;2023-06-10T14:28:31;6.30;;;2.15;;
75993;SDS011;64680;53.800;9.988;2023-06-10T14:30:56;4.65;;;2.08;;
75993;SDS011;64680;53.800;9.988;2023-06-10T14:33:22;5.72;;;2.10;;
75993;SDS011;64680;53.800;9.988;2023-06-10T14:35:48;7.10;;;2.53;;
75993;SDS011;64680;53.800;9.988;2023-06-10T14:38:14;8.23;;;2.70;;
75993;SDS011;64680;53.800;9.988;2023-06-10T14:40:39;7.22;;;2.47;;
75993;SDS011;64680;53.800;9.988;2023-06-10T14:43:05;6.00;;;2.20;;
75993;SDS011;64680;53.800;9.988;2023-06-10T14:45:35;6.43;;;2.45;;
75993;SDS011;64680;53.800;9.988;2023-06-10T14:48:02;5.20;;;2.13;;
75993;SDS011;64680;53.800;9.988;2023-06-10T14:50:28;6.07;;;2.05;;
75993;SDS011;64680;53.800;9.988;2023-06-10T14:52:53;6.22;;;2.10;;
75993;SDS011;64680;53.800;9.988;2023-06-10T14:55:19;5.57;;;1.85;;
75993;SDS011;64680;53.800;9.988;2023-06-10T14:57:45;6.68;;;2.20;;
75993;SDS011;64680;53.800;9.988;2023-06-10T15:00:11;6.38;;;1.90;;
75993;SDS011;64680;53.800;9.988;2023-06-10T15:02:40;8.90;;;2.38;;
75993;SDS011;64680;53.800;9.988;2023-06-10T15:05:05;5.63;;;2.65;;
75993;SDS011;64680;53.800;9.988;2023-06-10T15:07:31;10.07;;;6.07;;
75993;SDS011;64680;53.800;9.988;2023-06-10T15:09:57;13.05;;;6.50;;
75993;SDS011;64680;53.800;9.988;2023-06-10T15:12:23;8.52;;;2.38;;
75993;SDS011;64680;53.800;9.988;2023-06-10T15:14:49;5.20;;;2.30;;